This is the latest recevied weather packets stored in our database for station/object VK3MAK-1. If no packets are shown the sender has not sent any weather packets the latest 10 day(s).
| Time | Temp. | Humidity | Pressure | Rain* | Wind** | Luminosity | Snow |
|---|---|---|---|---|---|---|---|
| 1777651804 | 15° C | 60% | 1017.4 hPa | 0 mm | 3.13 m/s, 23° | - | - |
| 1777651203 | 16.67° C | 56% | 1017.6 hPa | 0 mm | 2.68 m/s, 23° | - | - |
| 1777650605 | 16.67° C | 56% | 1017.6 hPa | 0 mm | 2.68 m/s, 23° | - | - |
| 1777650004 | 16.67° C | 56% | 1017.6 hPa | 0 mm | 2.68 m/s, 23° | - | - |
| 1777649403 | 16.11° C | 56% | 1017.8 hPa | 0 mm | 3.13 m/s, 23° | - | - |
| 1777648803 | 16.11° C | 56% | 1017.8 hPa | 0 mm | 3.13 m/s, 23° | - | - |
| 1777648205 | 16.11° C | 56% | 1017.8 hPa | 0 mm | 3.13 m/s, 23° | - | - |
| 1777647604 | 17.22° C | 53% | 1018 hPa | 0 mm | 3.13 m/s, 45° | - | - |
| 1777647004 | 17.22° C | 53% | 1018 hPa | 0 mm | 3.13 m/s, 45° | - | - |
| 1777646404 | 17.22° C | 53% | 1018 hPa | 0 mm | 3.13 m/s, 45° | - | - |
| 1777645804 | 17.78° C | 51% | 1018.3 hPa | 0 mm | 4.02 m/s, 45° | - | - |
| 1777645204 | 17.78° C | 51% | 1018.3 hPa | 0 mm | 4.02 m/s, 45° | - | - |
| 1777644603 | 17.78° C | 51% | 1018.3 hPa | 0 mm | 4.02 m/s, 45° | - | - |
| 1777644009 | 17.78° C | 50% | 1018.5 hPa | 0 mm | 3.13 m/s, 23° | - | - |
| 1777643403 | 17.78° C | 50% | 1018.5 hPa | 0 mm | 3.13 m/s, 23° | - | - |
| 1777642804 | 17.78° C | 50% | 1018.5 hPa | 0 mm | 3.13 m/s, 23° | - | - |
| 1777642203 | 18.33° C | 48% | 1019 hPa | 0 mm | 3.58 m/s, 23° | - | - |
| 1777641604 | 18.33° C | 48% | 1019 hPa | 0 mm | 3.58 m/s, 23° | - | - |
| 1777641003 | 18.33° C | 48% | 1019 hPa | 0 mm | 3.58 m/s, 23° | - | - |
| 1777640404 | 17.78° C | 52% | 1019.3 hPa | 0 mm | 2.68 m/s, 23° | - | - |
| 1777639805 | 17.78° C | 52% | 1019.3 hPa | 0 mm | 2.68 m/s, 23° | - | - |
| 1777639203 | 17.78° C | 52% | 1019.3 hPa | 0 mm | 2.68 m/s, 23° | - | - |
| 1777638604 | 17.78° C | 51% | 1019.5 hPa | 0 mm | 3.13 m/s, 23° | - | - |
| 1777638004 | 17.78° C | 51% | 1019.5 hPa | 0 mm | 3.13 m/s, 23° | - | - |
| 1777637403 | 17.78° C | 51% | 1019.5 hPa | 0 mm | 3.13 m/s, 23° | - | - |
* Rain latest hour (hover to see other rain measurements)
** Current wind speed in m/s (hover to see current wind gust speed)